createdAt,value
2018-04-18T00:01:11.681Z,12.70
2018-04-18T00:03:39.194Z,12.70
2018-04-18T00:06:06.708Z,12.60
2018-04-18T00:08:34.214Z,12.60
2018-04-18T00:11:01.733Z,12.60
2018-04-18T00:13:29.227Z,12.50
2018-04-18T00:15:56.732Z,12.50
2018-04-18T00:18:24.218Z,12.50
2018-04-18T00:20:51.724Z,12.40
2018-04-18T00:23:19.616Z,12.40
2018-04-18T00:25:47.537Z,12.40
2018-04-18T00:28:15.044Z,12.40
2018-04-18T00:30:42.562Z,12.30
2018-04-18T00:33:10.061Z,12.30
2018-04-18T00:35:37.982Z,12.20
2018-04-18T00:38:05.549Z,12.30
2018-04-18T00:40:33.452Z,12.20
2018-04-18T00:43:00.939Z,12.20
2018-04-18T00:45:28.497Z,12.10
2018-04-18T00:47:56.383Z,12.10
2018-04-18T00:50:23.901Z,12.10
2018-04-18T00:52:51.391Z,12.00
2018-04-18T00:55:18.913Z,12.00
2018-04-18T00:57:46.407Z,12.00
2018-04-18T01:00:13.999Z,11.90
2018-04-18T01:02:41.507Z,11.90
2018-04-18T01:05:09.042Z,11.90
2018-04-18T01:07:36.551Z,11.90
2018-04-18T01:10:04.077Z,11.90
2018-04-18T01:12:32.415Z,11.90
2018-04-18T01:14:59.926Z,11.90
2018-04-18T01:17:27.416Z,11.90
2018-04-18T01:19:55.395Z,11.80
2018-04-18T01:22:22.883Z,11.90
2018-04-18T01:24:50.463Z,11.80
2018-04-18T01:27:18.052Z,11.70
2018-04-18T01:29:45.563Z,11.70
2018-04-18T01:32:13.954Z,11.70
2018-04-18T01:34:41.864Z,11.60
2018-04-18T01:37:09.420Z,11.60
2018-04-18T01:39:36.934Z,11.60
2018-04-18T01:42:04.455Z,11.60
2018-04-18T01:44:31.957Z,11.60
2018-04-18T01:46:59.485Z,11.70
2018-04-18T01:49:31.908Z,11.70
2018-04-18T01:51:59.437Z,11.60
2018-04-18T01:54:27.323Z,11.40
2018-04-18T01:56:54.857Z,11.50
2018-04-18T01:59:22.404Z,11.40
2018-04-18T02:01:49.893Z,11.40
2018-04-18T02:04:17.416Z,11.40
2018-04-18T02:06:44.931Z,11.40
2018-04-18T02:09:12.423Z,11.40
2018-04-18T02:11:39.933Z,11.40
2018-04-18T02:14:07.829Z,11.30
2018-04-18T02:16:35.731Z,11.40
2018-04-18T02:19:03.223Z,11.40
2018-04-18T02:21:30.771Z,11.40
2018-04-18T02:23:58.700Z,11.40
2018-04-18T02:26:26.276Z,11.40
2018-04-18T02:28:53.772Z,11.40
2018-04-18T02:31:21.284Z,11.40
2018-04-18T02:33:48.779Z,11.40
2018-04-18T02:36:16.304Z,11.30
2018-04-18T02:38:43.810Z,11.30
2018-04-18T02:41:11.333Z,11.40
2018-04-18T02:43:39.033Z,11.30
2018-04-18T02:46:06.943Z,11.10
2018-04-18T02:48:34.846Z,11.10
2018-04-18T02:51:02.351Z,11.10
2018-04-18T02:53:29.843Z,11.10
2018-04-18T02:55:57.353Z,11.00
2018-04-18T02:58:24.849Z,11.00
2018-04-18T03:00:52.760Z,11.00
2018-04-18T03:03:20.661Z,10.90
2018-04-18T03:05:48.240Z,11.00
2018-04-18T03:08:15.733Z,11.00
2018-04-18T03:10:43.258Z,11.00
2018-04-18T03:13:10.767Z,11.00
2018-04-18T03:15:38.357Z,11.00
2018-04-18T03:18:05.842Z,11.00
2018-04-18T03:20:33.754Z,10.80
2018-04-18T03:23:01.517Z,10.90
2018-04-18T03:25:29.517Z,10.70
2018-04-18T03:27:57.411Z,10.70
2018-04-18T03:30:25.411Z,10.70
2018-04-18T03:32:53.323Z,10.70
2018-04-18T03:35:20.836Z,10.70
2018-04-18T03:37:48.335Z,10.70
2018-04-18T03:40:15.953Z,10.60
2018-04-18T03:42:43.949Z,10.60
2018-04-18T03:45:11.955Z,10.60
2018-04-18T03:47:39.869Z,10.50
2018-04-18T03:50:07.414Z,10.50
2018-04-18T03:52:35.350Z,10.50
2018-04-18T03:55:02.895Z,10.50
2018-04-18T03:57:30.901Z,10.50
2018-04-18T03:59:58.399Z,10.50
2018-04-18T04:02:25.915Z,10.50
2018-04-18T04:04:53.415Z,10.40
2018-04-18T04:07:20.932Z,10.50
2018-04-18T04:09:48.845Z,10.40
2018-04-18T04:12:16.360Z,10.40
2018-04-18T04:14:43.855Z,10.30
2018-04-18T04:17:23.192Z,10.30
2018-04-18T04:20:02.678Z,10.30
2018-04-18T04:22:42.281Z,10.30
2018-04-18T04:25:09.859Z,10.30
2018-04-18T04:27:37.384Z,10.30
2018-04-18T04:30:04.893Z,10.20
2018-04-18T04:32:32.425Z,10.30
2018-04-18T04:35:00.325Z,10.20
2018-04-18T04:37:27.962Z,10.20
2018-04-18T04:39:55.473Z,10.30
2018-04-18T04:42:23.467Z,10.20
2018-04-18T04:44:51.112Z,10.20
2018-04-18T04:47:19.062Z,10.30
2018-04-18T04:49:46.973Z,10.40
2018-04-18T04:52:14.527Z,10.40
2018-04-18T04:54:42.537Z,10.40
2018-04-18T04:57:10.461Z,10.40
2018-04-18T04:59:37.965Z,10.40
2018-04-18T05:02:05.492Z,10.40
2018-04-18T05:04:33.004Z,10.40
2018-04-18T05:07:00.524Z,10.40
2018-04-18T05:09:28.030Z,10.40
2018-04-18T05:11:55.953Z,10.40
2018-04-18T05:14:23.470Z,10.40
2018-04-18T05:16:51.005Z,10.50
2018-04-18T05:19:18.903Z,10.50
2018-04-18T05:21:46.829Z,10.60
2018-04-18T05:24:14.327Z,10.60
2018-04-18T05:26:41.975Z,10.70
2018-04-18T05:29:09.486Z,10.60
2018-04-18T05:31:37.004Z,10.70
2018-04-18T05:34:04.617Z,10.80
2018-04-18T05:36:32.525Z,10.90
2018-04-18T05:39:00.034Z,10.90
2018-04-18T05:41:27.559Z,10.90
2018-04-18T05:43:55.165Z,11.00
2018-04-18T05:46:23.148Z,11.10
2018-04-18T05:48:50.740Z,11.10
2018-04-18T05:51:18.645Z,11.20
2018-04-18T05:53:46.565Z,11.30
2018-04-18T05:56:14.068Z,11.30
2018-04-18T05:58:41.596Z,11.40
2018-04-18T06:01:09.489Z,11.70
2018-04-18T06:03:37.397Z,12.00
2018-04-18T06:06:04.973Z,12.00
2018-04-18T06:08:32.887Z,12.70
2018-04-18T06:11:00.389Z,12.70
2018-04-18T06:13:27.918Z,13.00
2018-04-18T06:15:55.811Z,13.60
2018-04-18T06:18:23.323Z,13.60
2018-04-18T06:20:50.828Z,14.00
2018-04-18T06:23:18.359Z,14.40
2018-04-18T06:25:45.957Z,14.70
2018-04-18T06:28:13.934Z,15.30
2018-04-18T06:30:41.423Z,15.30
2018-04-18T06:33:08.944Z,15.60
2018-04-18T06:35:36.440Z,15.80
2018-04-18T06:38:03.953Z,16.00
2018-04-18T06:40:31.447Z,16.30
2018-04-18T06:42:58.957Z,16.50
2018-04-18T06:45:26.455Z,16.70
2018-04-18T06:47:53.964Z,16.80
2018-04-18T06:50:21.456Z,17.00
2018-04-18T06:52:48.959Z,17.10
2018-04-18T06:55:16.451Z,17.20
2018-04-18T06:57:44.006Z,17.40
2018-04-18T07:00:11.519Z,17.40
2018-04-18T07:02:39.042Z,17.70
2018-04-18T07:05:06.541Z,17.90
2018-04-18T07:07:34.051Z,18.10
2018-04-18T07:10:01.554Z,18.40
2018-04-18T07:12:29.070Z,18.70
2018-04-18T07:14:56.576Z,18.80
2018-04-18T07:17:24.097Z,19.00
2018-04-18T07:19:51.687Z,19.10
2018-04-18T07:22:19.281Z,19.30
2018-04-18T07:24:46.863Z,19.30
2018-04-18T07:27:14.365Z,19.40
2018-04-18T07:29:42.251Z,19.90
2018-04-18T07:32:10.241Z,20.20
2018-04-18T07:34:38.127Z,20.40
2018-04-18T07:37:05.721Z,20.40
2018-04-18T07:39:33.628Z,20.60
2018-04-18T07:42:01.116Z,20.60
2018-04-18T07:44:28.637Z,20.60
2018-04-18T07:46:56.159Z,20.60
2018-04-18T07:49:24.084Z,21.30
2018-04-18T07:51:51.570Z,21.30
2018-04-18T07:54:19.081Z,21.40
2018-04-18T07:56:46.581Z,21.60
2018-04-18T07:59:14.099Z,21.80
2018-04-18T08:01:42.090Z,21.90
2018-04-18T08:04:09.999Z,21.90
2018-04-18T08:06:37.505Z,21.90
2018-04-18T08:09:05.032Z,21.80
2018-04-18T08:11:32.532Z,21.90
2018-04-18T08:14:00.515Z,22.10
2018-04-18T08:16:28.408Z,22.30
2018-04-18T08:18:56.337Z,22.20
2018-04-18T08:21:23.891Z,22.20
2018-04-18T08:23:51.885Z,22.50
2018-04-18T08:26:19.784Z,22.70
2018-04-18T08:28:47.768Z,22.90
2018-04-18T08:31:15.351Z,22.90
2018-04-18T08:33:42.873Z,23.00
2018-04-18T08:36:10.370Z,23.10
2018-04-18T08:38:37.894Z,23.20
2018-04-18T08:41:05.396Z,23.40
2018-04-18T08:43:33.316Z,23.70
2018-04-18T08:46:00.815Z,23.70
2018-04-18T08:48:28.367Z,23.70
2018-04-18T08:50:56.347Z,24.10
2018-04-18T08:53:24.271Z,24.30
2018-04-18T08:55:51.821Z,24.30
2018-04-18T08:58:19.736Z,24.30
2018-04-18T09:00:47.229Z,24.30
2018-04-18T09:03:14.786Z,24.50
2018-04-18T09:05:42.686Z,24.50
2018-04-18T09:08:10.592Z,24.70
2018-04-18T09:10:38.157Z,24.70
2018-04-18T09:13:06.068Z,24.70
2018-04-18T09:15:33.568Z,24.80
2018-04-18T09:18:01.079Z,24.90
2018-04-18T09:20:28.571Z,24.90
2018-04-18T09:22:56.092Z,24.90
2018-04-18T09:25:23.987Z,24.60
2018-04-18T09:27:51.881Z,24.80
2018-04-18T09:30:19.412Z,24.80
2018-04-18T09:32:46.917Z,25.20
2018-04-18T09:35:14.427Z,25.20
2018-04-18T09:37:42.309Z,25.10
2018-04-18T09:40:10.220Z,25.10
2018-04-18T09:42:37.774Z,25.10
2018-04-18T09:45:05.429Z,25.00
2018-04-18T09:47:32.913Z,25.00
2018-04-18T09:50:00.458Z,25.10
2018-04-18T09:52:27.947Z,25.20
2018-04-18T09:54:55.541Z,25.40
2018-04-18T09:57:23.051Z,25.50
2018-04-18T09:59:50.687Z,25.30
2018-04-18T10:02:18.629Z,25.20
2018-04-18T10:04:46.148Z,25.20
2018-04-18T10:07:13.741Z,25.20
2018-04-18T10:09:41.647Z,25.30
2018-04-18T10:12:09.532Z,25.40
2018-04-18T10:14:37.521Z,25.40
2018-04-18T10:17:05.512Z,25.50
2018-04-18T10:19:33.023Z,25.50
2018-04-18T10:22:00.540Z,25.50
2018-04-18T10:24:28.184Z,25.20
2018-04-18T10:26:55.753Z,25.20
2018-04-18T10:29:23.654Z,25.00
2018-04-18T10:31:51.640Z,24.90
2018-04-18T10:34:19.557Z,25.00
2018-04-18T10:36:47.059Z,25.00
2018-04-18T10:39:14.571Z,25.30
2018-04-18T10:41:42.086Z,25.50
2018-04-18T10:44:09.987Z,25.70
2018-04-18T10:46:37.963Z,25.60
2018-04-18T10:49:05.467Z,25.50
2018-04-18T10:51:33.348Z,25.10
2018-04-18T10:54:01.309Z,25.00
2018-04-18T10:56:28.823Z,24.90
2018-04-18T10:58:56.755Z,25.10
2018-04-18T11:01:24.249Z,25.10
2018-04-18T11:03:51.759Z,25.20
2018-04-18T11:06:19.257Z,25.20
2018-04-18T11:08:46.846Z,25.40
2018-04-18T11:11:14.331Z,25.60
2018-04-18T11:13:41.929Z,25.60
2018-04-18T11:16:09.929Z,25.30
2018-04-18T11:18:37.866Z,25.40
2018-04-18T11:21:05.356Z,25.40
2018-04-18T11:23:32.854Z,25.40
2018-04-18T11:26:00.455Z,25.40
2018-04-18T11:28:28.457Z,25.90
2018-04-18T11:30:56.360Z,25.90
2018-04-18T11:33:24.333Z,26.00
2018-04-18T11:35:51.853Z,26.00
2018-04-18T11:38:19.339Z,26.30
2018-04-18T11:40:46.875Z,26.40
2018-04-18T11:43:14.378Z,26.50
2018-04-18T11:45:42.295Z,26.40
2018-04-18T11:48:09.796Z,26.40
2018-04-18T11:50:37.311Z,26.50
2018-04-18T11:53:04.798Z,26.30
2018-04-18T11:55:32.314Z,26.40
2018-04-18T11:58:00.304Z,26.30
2018-04-18T12:00:28.282Z,26.40
2018-04-18T12:02:55.894Z,26.40
2018-04-18T12:05:23.480Z,26.50
2018-04-18T12:07:51.039Z,26.70
2018-04-18T12:10:18.540Z,26.50
2018-04-18T12:12:46.529Z,26.30
2018-04-18T12:15:14.439Z,26.30
2018-04-18T12:17:41.941Z,26.30
2018-04-18T12:20:09.447Z,26.00
2018-04-18T12:22:36.952Z,26.10
2018-04-18T12:25:04.557Z,26.10
2018-04-18T12:27:32.068Z,26.10
2018-04-18T12:29:59.566Z,26.30
2018-04-18T12:32:27.055Z,26.40
2018-04-18T12:34:54.559Z,26.60
2018-04-18T12:37:22.081Z,26.70
2018-04-18T12:39:50.113Z,26.80
2018-04-18T12:42:17.603Z,26.80
2018-04-18T12:44:45.125Z,26.80
2018-04-18T12:47:12.621Z,26.80
2018-04-18T12:49:40.600Z,26.70
2018-04-18T12:52:08.103Z,26.80
2018-04-18T12:54:35.681Z,26.70
2018-04-18T12:57:03.563Z,26.60
2018-04-18T12:59:31.076Z,26.60
2018-04-18T13:01:58.623Z,26.30
2018-04-18T13:04:26.129Z,26.40
2018-04-18T13:06:54.037Z,26.60
2018-04-18T13:09:21.545Z,26.60
2018-04-18T13:11:49.076Z,26.60
2018-04-18T13:14:16.582Z,26.60
2018-04-18T13:16:44.104Z,26.70
2018-04-18T13:19:11.601Z,26.70
2018-04-18T13:21:39.119Z,26.60
2018-04-18T13:24:07.137Z,26.50
2018-04-18T13:26:34.697Z,26.50
2018-04-18T13:29:02.201Z,26.60
2018-04-18T13:31:29.786Z,26.50
2018-04-18T13:33:57.345Z,26.60
2018-04-18T13:36:25.252Z,26.70
2018-04-18T13:38:53.148Z,26.50
2018-04-18T13:41:20.703Z,26.50
2018-04-18T13:43:48.187Z,26.40
2018-04-18T13:46:15.773Z,26.30
2018-04-18T13:48:43.259Z,26.50
2018-04-18T13:51:10.774Z,26.70
2018-04-18T13:53:38.333Z,26.80
2018-04-18T13:56:05.853Z,26.80
2018-04-18T13:58:33.339Z,26.70
2018-04-18T14:01:00.844Z,26.70
2018-04-18T14:03:28.345Z,26.70
2018-04-18T14:05:55.956Z,26.80
2018-04-18T14:08:23.843Z,26.80
2018-04-18T14:10:51.830Z,26.80
2018-04-18T14:13:19.418Z,26.80
2018-04-18T14:15:46.929Z,26.80
2018-04-18T14:18:14.416Z,26.80
2018-04-18T14:20:41.928Z,26.90
2018-04-18T14:23:09.415Z,26.90
2018-04-18T14:25:36.935Z,27.00
2018-04-18T14:28:04.429Z,27.10
2018-04-18T14:30:32.419Z,27.10
2018-04-18T14:33:00.313Z,27.10
2018-04-18T14:35:28.296Z,27.00
2018-04-18T14:37:55.883Z,27.00
2018-04-18T14:40:23.393Z,27.00
2018-04-18T14:42:51.281Z,27.10
2018-04-18T14:45:19.179Z,27.20
2018-04-18T14:47:47.143Z,27.20
2018-04-18T14:50:14.731Z,27.30
2018-04-18T14:52:42.324Z,27.10
2018-04-18T14:55:09.841Z,27.10
2018-04-18T14:57:37.351Z,27.10
2018-04-18T15:00:04.844Z,27.20
2018-04-18T15:02:32.455Z,27.30
2018-04-18T15:05:00.070Z,27.10
2018-04-18T15:07:27.593Z,27.10
2018-04-18T15:09:55.080Z,27.10
2018-04-18T15:12:22.589Z,27.10
2018-04-18T15:14:50.076Z,27.00
2018-04-18T15:17:17.670Z,27.00
2018-04-18T15:19:45.564Z,27.10
2018-04-18T15:22:13.477Z,27.00
2018-04-18T15:24:40.973Z,27.00
2018-04-18T15:27:08.492Z,26.90
2018-04-18T15:29:35.979Z,26.80
2018-04-18T15:32:03.487Z,26.80
2018-04-18T15:34:31.375Z,26.70
2018-04-18T15:36:58.951Z,26.70
2018-04-18T15:39:26.435Z,26.70
2018-04-18T15:41:53.951Z,26.60
2018-04-18T15:44:21.513Z,26.70
2018-04-18T15:46:49.087Z,26.80
2018-04-18T15:49:16.585Z,26.80
2018-04-18T15:51:44.506Z,26.60
2018-04-18T15:54:12.062Z,26.60
2018-04-18T15:56:39.978Z,26.60
2018-04-18T15:59:07.473Z,26.60
2018-04-18T16:01:35.015Z,26.60
2018-04-18T16:04:02.544Z,26.60
2018-04-18T16:06:30.057Z,26.60
2018-04-18T16:08:57.564Z,26.70
2018-04-18T16:11:25.076Z,26.70
2018-04-18T16:13:52.645Z,26.70
2018-04-18T16:16:20.628Z,26.70
2018-04-18T16:18:48.138Z,26.70
2018-04-18T16:21:15.701Z,26.80
2018-04-18T16:23:43.592Z,26.90
2018-04-18T16:26:11.186Z,26.90
2018-04-18T16:28:39.081Z,26.90
2018-04-18T16:31:06.975Z,26.70
2018-04-18T16:33:34.855Z,26.60
2018-04-18T16:36:02.451Z,26.70
2018-04-18T16:38:30.428Z,26.50
2018-04-18T16:40:57.944Z,26.50
2018-04-18T16:43:25.441Z,26.40
2018-04-18T16:45:52.948Z,26.40
2018-04-18T16:48:20.445Z,26.50
2018-04-18T16:50:47.935Z,26.50
2018-04-18T16:53:15.435Z,26.50
2018-04-18T16:55:42.937Z,26.40
2018-04-18T16:58:10.907Z,26.30
2018-04-18T17:00:38.505Z,26.30
2018-04-18T17:03:06.408Z,26.10
2018-04-18T17:05:34.298Z,26.10
2018-04-18T17:08:02.198Z,26.10
2018-04-18T17:10:29.683Z,26.10
2018-04-18T17:12:57.201Z,26.00
2018-04-18T17:15:24.688Z,26.00
2018-04-18T17:17:52.225Z,26.00
2018-04-18T17:20:20.191Z,26.00
2018-04-18T17:22:47.710Z,26.00
2018-04-18T17:25:15.209Z,26.00
2018-04-18T17:27:42.773Z,26.00
2018-04-18T17:30:10.748Z,26.10
2018-04-18T17:32:38.266Z,26.10
2018-04-18T17:35:05.793Z,26.00
2018-04-18T17:37:33.349Z,25.90
2018-04-18T17:40:00.875Z,25.90
2018-04-18T17:42:28.464Z,25.90
2018-04-18T17:44:55.967Z,25.90
2018-04-18T17:47:23.924Z,25.70
2018-04-18T17:49:51.426Z,25.70
2018-04-18T17:52:18.953Z,25.60
2018-04-18T17:54:47.426Z,25.50
2018-04-18T17:57:15.433Z,25.40
2018-04-18T17:59:43.317Z,25.30
2018-04-18T18:02:11.299Z,25.10
2018-04-18T18:04:38.783Z,25.20
2018-04-18T18:07:06.284Z,25.00
2018-04-18T18:09:34.180Z,24.70
2018-04-18T18:12:02.098Z,24.50
2018-04-18T18:14:29.589Z,24.60
2018-04-18T18:16:57.111Z,24.40
2018-04-18T18:19:24.696Z,24.10
2018-04-18T18:21:52.220Z,23.90
2018-04-18T18:24:19.789Z,23.80
2018-04-18T18:26:47.692Z,23.60
2018-04-18T18:29:15.197Z,23.60
2018-04-18T18:31:42.763Z,23.40
2018-04-18T18:34:10.257Z,23.30
2018-04-18T18:36:37.767Z,23.10
2018-04-18T18:39:05.265Z,23.00
2018-04-18T18:41:32.844Z,22.90
2018-04-18T18:44:00.368Z,22.80
2018-04-18T18:46:28.283Z,22.30
2018-04-18T18:48:55.787Z,22.40
2018-04-18T18:51:23.280Z,22.30
2018-04-18T18:53:50.788Z,22.20
2018-04-18T18:56:18.327Z,22.10
2018-04-18T18:58:45.835Z,21.90
2018-04-18T19:01:13.362Z,21.80
2018-04-18T19:03:41.276Z,21.50
2018-04-18T19:06:08.780Z,21.60
2018-04-18T19:08:36.292Z,21.40
2018-04-18T19:11:03.793Z,21.40
2018-04-18T19:13:31.720Z,21.30
2018-04-18T19:15:59.216Z,21.40
2018-04-18T19:18:26.865Z,21.20
2018-04-18T19:20:54.751Z,20.90
2018-04-18T19:23:22.648Z,20.80
2018-04-18T19:25:50.541Z,20.70
2018-04-18T19:28:18.577Z,20.60
2018-04-18T19:30:46.015Z,20.60
2018-04-18T19:33:13.922Z,20.30
2018-04-18T19:35:41.420Z,20.30
2018-04-18T19:38:08.945Z,20.30
2018-04-18T19:40:36.443Z,20.20
2018-04-18T19:43:03.943Z,20.00
2018-04-18T19:45:31.822Z,19.90
2018-04-18T19:47:59.340Z,19.90
2018-04-18T19:50:26.822Z,19.90
2018-04-18T19:52:54.332Z,19.90
2018-04-18T19:55:21.825Z,19.80
2018-04-18T19:57:49.442Z,19.70
2018-04-18T20:00:16.927Z,19.60
2018-04-18T20:02:44.520Z,19.50
2018-04-18T20:05:12.443Z,19.50
2018-04-18T20:07:39.994Z,19.60
2018-04-18T20:10:07.482Z,19.50
2018-04-18T20:12:35.384Z,19.30
2018-04-18T20:15:03.365Z,19.20
2018-04-18T20:17:31.276Z,19.20
2018-04-18T20:19:58.832Z,19.30
2018-04-18T20:22:26.408Z,19.20
2018-04-18T20:24:53.865Z,19.00
2018-04-18T20:27:21.381Z,19.10
2018-04-18T20:29:48.875Z,18.90
2018-04-18T20:32:16.461Z,18.80
2018-04-18T20:34:44.352Z,18.80
2018-04-18T20:37:11.835Z,18.80
2018-04-18T20:39:39.827Z,18.70
2018-04-18T20:42:07.434Z,18.70
2018-04-18T20:44:35.409Z,18.60
2018-04-18T20:47:03.296Z,18.50
2018-04-18T20:49:30.814Z,18.60
2018-04-18T20:51:58.304Z,18.50
2018-04-18T20:54:25.813Z,18.50
2018-04-18T20:56:53.299Z,18.40
2018-04-18T20:59:20.809Z,18.30
2018-04-18T21:01:48.322Z,18.40
2018-04-18T21:04:15.894Z,18.40
2018-04-18T21:06:43.884Z,18.40
2018-04-18T21:09:11.793Z,18.40
2018-04-18T21:11:39.760Z,18.50
2018-04-18T21:14:07.278Z,18.50
2018-04-18T21:19:06.926Z,18.40
2018-04-18T21:21:34.411Z,18.30
2018-04-18T21:24:02.332Z,18.30
2018-04-18T21:26:29.890Z,18.30
2018-04-18T21:28:57.428Z,18.30
2018-04-18T21:31:24.915Z,18.20
2018-04-18T21:33:52.429Z,18.10
2018-04-18T21:36:20.021Z,18.10
2018-04-18T21:38:47.527Z,18.10
2018-04-18T21:41:15.424Z,18.00
2018-04-18T21:43:42.974Z,18.00
2018-04-18T21:46:10.469Z,17.90
2018-04-18T21:48:38.480Z,17.70
2018-04-18T21:51:06.368Z,17.60
2018-04-18T21:53:34.281Z,17.60
2018-04-18T21:56:01.777Z,17.60
2018-04-18T21:58:29.281Z,17.50
2018-04-18T22:00:56.784Z,17.60
2018-04-18T22:03:24.375Z,17.50
2018-04-18T22:05:51.859Z,17.40
2018-04-18T22:08:19.364Z,17.30
2018-04-18T22:10:47.350Z,17.20
2018-04-18T22:13:15.269Z,17.10
2018-04-18T22:15:42.763Z,17.20
2018-04-18T22:18:10.268Z,17.10
2018-04-18T22:20:37.773Z,17.10
2018-04-18T22:23:05.377Z,17.00
2018-04-18T22:25:33.360Z,17.00
2018-04-18T22:28:00.875Z,17.00
2018-04-18T22:30:28.438Z,17.00
2018-04-18T22:32:56.425Z,17.00
2018-04-18T22:35:24.317Z,17.00
2018-04-18T22:37:52.209Z,16.90
2018-04-18T22:40:19.788Z,17.00
2018-04-18T22:42:47.375Z,16.80
2018-04-18T22:45:14.954Z,16.70
2018-04-18T22:47:42.557Z,16.70
2018-04-18T22:50:10.463Z,16.60
2018-04-18T22:52:38.347Z,16.60
2018-04-18T22:55:06.338Z,16.40
2018-04-18T22:57:34.223Z,16.40
2018-04-18T23:00:02.138Z,16.40
2018-04-18T23:02:29.691Z,16.40
2018-04-18T23:04:57.216Z,16.40
2018-04-18T23:07:24.777Z,16.30
2018-04-18T23:09:52.688Z,16.50
2018-04-18T23:12:20.194Z,16.50
2018-04-18T23:14:47.712Z,16.60
2018-04-18T23:17:15.207Z,16.70
2018-04-18T23:19:42.720Z,16.70
2018-04-18T23:22:10.221Z,16.80
2018-04-18T23:24:37.745Z,16.90
2018-04-18T23:27:05.248Z,16.90
2018-04-18T23:29:32.773Z,16.90
2018-04-18T23:32:00.316Z,17.10
2018-04-18T23:34:28.303Z,17.30
2018-04-18T23:36:55.810Z,17.30
2018-04-18T23:39:23.729Z,17.50
2018-04-18T23:41:51.220Z,17.50
2018-04-18T23:44:18.728Z,17.50
2018-04-18T23:46:46.223Z,17.60
2018-04-18T23:49:13.745Z,17.60
2018-04-18T23:51:41.299Z,17.60
2018-04-18T23:54:08.803Z,17.60
2018-04-18T23:56:36.690Z,17.60
2018-04-18T23:59:04.601Z,17.60
